Nearby METAR Reports

 

KLWM - Lawrence,MA, USA
Distance from station: NE 12mi, 19km
Updated: Sun, 25-Jun-2017 10:54pm EDT
Overcast
Overcast
 Wind from S
Wind: S 5 mph , 7 km/h
Temperature: 64°F , 18°C
Dew Point: 61°F , 16°C
Humidity: 88%
Barometer: 29.95 inHg , 1014.2 hPa
Clouds: Overcast
Visibility: 10 miles , 16 km
Cloud details: Mostly Cloudy 10000 ft
Overcast 11000 ft
2017/06/26 02:54 KLWM 260254Z AUTO 18004KT 10SM BKN100 OVC110 18/16 A2995 RMK AO2 RAE49 SLP140 P0006 60034 T01780161 50019
KBED - Bedford,MA, USA
Distance from station: SSE 12mi, 19km
Updated: Sun, 25-Jun-2017 10:56pm EDT
Light rain, Overcast
Light rain, Overcast
 Wind from WNW
Wind: WNW 3 mph , 6 km/h
Temperature: 63°F , 17°C
Dew Point: 57°F , 14°C
Humidity: 83%
Barometer: 29.93 inHg , 1013.5 hPa
Summary: Light Rain
Clouds: Overcast
Visibility: 9 miles , 14 km
Cloud details: Few Clouds 8000 ft
Overcast 9000 ft
2017/06/26 02:56 KBED 260256Z 30003KT 9SM -RA FEW080 OVC090 17/14 A2993 RMK AO2 RAE27B44 SLP146 P0002 60012 T01670144 50020

Metar display script from Saratoga-Weather.org